createdAt,value
2023-05-19T00:00:39.236Z,95718.69
2023-05-19T00:03:06.450Z,95719.34
2023-05-19T00:05:34.552Z,95716.69
2023-05-19T00:08:03.105Z,95715.75
2023-05-19T00:10:30.588Z,95722.84
2023-05-19T00:12:58.700Z,95715.91
2023-05-19T00:15:25.796Z,95719.41
2023-05-19T00:17:52.676Z,95714.53
2023-05-19T00:20:19.459Z,95721.09
2023-05-19T00:22:46.369Z,95717.69
2023-05-19T00:25:13.141Z,95704.19
2023-05-19T00:27:39.890Z,95707.97
2023-05-19T00:30:07.507Z,95706.31
2023-05-19T00:32:35.284Z,95707.53
2023-05-19T00:35:02.251Z,95702.53
2023-05-19T00:37:28.968Z,95703.53
2023-05-19T00:39:55.627Z,95693.06
2023-05-19T00:42:22.215Z,95695.75
2023-05-19T00:44:48.933Z,95690.16
2023-05-19T00:47:15.816Z,95696.09
2023-05-19T00:49:42.518Z,95699.38
2023-05-19T00:52:09.310Z,95697.03
2023-05-19T00:54:36.566Z,95696.19
2023-05-19T00:57:03.513Z,95693.59
2023-05-19T00:59:30.338Z,95698.66
2023-05-19T01:01:57.639Z,95692.66
2023-05-19T01:04:25.739Z,95700.53
2023-05-19T01:06:52.563Z,95695.38
2023-05-19T01:09:20.611Z,95692.16
2023-05-19T01:11:47.386Z,95694.69
2023-05-19T01:14:15.497Z,95687.16
2023-05-19T01:17:06.916Z,95696.19
2023-05-19T01:19:39.693Z,95696.25
2023-05-19T01:22:32.241Z,95693.59
2023-05-19T01:25:20.019Z,95695.31
2023-05-19T01:28:15.095Z,95692.84
2023-05-19T01:30:44.233Z,95686.88
2023-05-19T01:33:14.033Z,95696.38
2023-05-19T01:35:42.901Z,95697.03
2023-05-19T01:38:12.586Z,95700.38
2023-05-19T01:40:41.270Z,95692.06
2023-05-19T01:43:12.177Z,95696.38
2023-05-19T01:45:40.586Z,95702.75
2023-05-19T01:48:10.822Z,95694.28
2023-05-19T01:50:39.129Z,95695.59
2023-05-19T01:53:06.240Z,95695.97
2023-05-19T01:55:33.953Z,95696.25
2023-05-19T01:58:15.598Z,95688.91
2023-05-19T02:00:53.060Z,95699.50
2023-05-19T02:03:44.766Z,95695.06
2023-05-19T02:06:20.746Z,95688.03
2023-05-19T02:09:12.163Z,95692.53
2023-05-19T02:11:42.728Z,95694.09
2023-05-19T02:14:20.159Z,95695.31
2023-05-19T02:16:48.620Z,95687.38
2023-05-19T02:19:33.740Z,95688.13
2023-05-19T02:22:00.650Z,95694.47
2023-05-19T02:24:27.458Z,95686.31
2023-05-19T02:26:54.834Z,95689.56
2023-05-19T02:29:21.703Z,95692.47
2023-05-19T02:31:49.002Z,95689.72
2023-05-19T02:34:18.646Z,95692.28
2023-05-19T02:36:45.410Z,95688.66
2023-05-19T02:39:12.997Z,95689.94
2023-05-19T02:41:39.878Z,95689.63
2023-05-19T02:44:06.653Z,95686.81
2023-05-19T02:46:34.176Z,95691.63
2023-05-19T02:49:00.980Z,95688.16
2023-05-19T02:51:27.941Z,95685.31
2023-05-19T02:53:54.872Z,95687.84
2023-05-19T02:56:21.807Z,95682.81
2023-05-19T02:58:48.803Z,95672.69
2023-05-19T03:01:15.589Z,95680.44
2023-05-19T03:03:42.293Z,95675.63
2023-05-19T03:06:09.076Z,95669.16
2023-05-19T03:08:36.360Z,95675.66
2023-05-19T03:11:03.784Z,95677.75
2023-05-19T03:13:30.458Z,95677.59
2023-05-19T03:15:57.239Z,95676.38
2023-05-19T03:18:24.182Z,95667.44
2023-05-19T03:20:51.088Z,95669.53
2023-05-19T03:23:17.680Z,95663.81
2023-05-19T03:25:46.572Z,95661.16
2023-05-19T03:28:13.425Z,95649.44
2023-05-19T03:30:40.261Z,95656.00
2023-05-19T03:33:07.002Z,95655.50
2023-05-19T03:35:33.757Z,95654.53
2023-05-19T03:38:00.588Z,95660.72
2023-05-19T03:40:27.683Z,95658.44
2023-05-19T03:42:54.271Z,95659.25
2023-05-19T03:45:20.902Z,95660.97
2023-05-19T03:47:47.701Z,95664.69
2023-05-19T03:50:14.409Z,95666.69
2023-05-19T03:52:41.227Z,95664.16
2023-05-19T03:55:08.992Z,95671.22
2023-05-19T03:57:35.824Z,95672.16
2023-05-19T04:00:03.924Z,95675.59
2023-05-19T04:02:31.077Z,95673.22
2023-05-19T04:04:57.972Z,95678.88
2023-05-19T04:07:24.823Z,95690.16
2023-05-19T04:09:51.574Z,95682.03
2023-05-19T04:12:18.638Z,95687.41
2023-05-19T04:14:45.501Z,95682.19
2023-05-19T04:17:12.501Z,95689.13
2023-05-19T04:19:39.323Z,95692.69
2023-05-19T04:22:06.222Z,95690.25
2023-05-19T04:24:33.174Z,95688.19
2023-05-19T04:27:00.220Z,95690.03
2023-05-19T04:29:27.067Z,95690.75
2023-05-19T04:31:53.906Z,95693.84
2023-05-19T04:34:20.732Z,95692.78
2023-05-19T04:36:47.709Z,95698.19
2023-05-19T04:39:14.668Z,95694.91
2023-05-19T04:41:41.292Z,95694.69
2023-05-19T04:44:07.895Z,95694.34
2023-05-19T04:46:34.736Z,95694.25
2023-05-19T04:49:01.507Z,95696.91
2023-05-19T04:51:30.438Z,95699.91
2023-05-19T04:53:57.854Z,95694.38
2023-05-19T04:56:24.556Z,95698.28
2023-05-19T04:58:51.170Z,95698.75
2023-05-19T05:01:18.015Z,95704.91
2023-05-19T05:03:44.858Z,95703.00
2023-05-19T05:06:11.711Z,95700.84
2023-05-19T05:08:38.535Z,95703.91
2023-05-19T05:11:05.607Z,95706.94
2023-05-19T05:13:32.597Z,95703.34
2023-05-19T05:15:59.796Z,95705.50
2023-05-19T05:18:26.947Z,95697.47
2023-05-19T05:20:55.238Z,95701.00
2023-05-19T05:23:22.318Z,95704.16
2023-05-19T05:25:49.568Z,95708.06
2023-05-19T05:28:16.487Z,95697.81
2023-05-19T05:30:43.221Z,95694.22
2023-05-19T05:33:10.296Z,95692.66
2023-05-19T05:35:37.341Z,95695.34
2023-05-19T05:38:04.783Z,95690.69
2023-05-19T05:40:31.637Z,95695.28
2023-05-19T05:42:58.536Z,95689.31
2023-05-19T05:45:27.762Z,95688.50
2023-05-19T05:47:54.859Z,95691.38
2023-05-19T05:50:21.857Z,95691.84
2023-05-19T05:52:50.362Z,95691.56
2023-05-19T05:55:17.508Z,95686.56
2023-05-19T05:57:44.363Z,95688.41
2023-05-19T06:00:11.670Z,95687.25
2023-05-19T06:02:38.809Z,95691.38
2023-05-19T06:05:05.869Z,95692.50
2023-05-19T06:07:32.753Z,95691.56
2023-05-19T06:09:59.317Z,95682.34
2023-05-19T06:12:25.925Z,95683.47
2023-05-19T06:14:52.662Z,95681.06
2023-05-19T06:17:19.472Z,95680.31
2023-05-19T06:19:46.308Z,95675.59
2023-05-19T06:22:13.118Z,95671.13
2023-05-19T06:24:40.006Z,95684.44
2023-05-19T06:27:06.942Z,95680.31
2023-05-19T06:29:33.787Z,95682.66
2023-05-19T06:32:00.683Z,95681.31
2023-05-19T06:34:27.762Z,95678.22
2023-05-19T06:36:54.743Z,95670.50
2023-05-19T06:39:21.560Z,95674.41
2023-05-19T06:41:48.317Z,95680.22
2023-05-19T06:44:15.189Z,95678.28
2023-05-19T06:46:42.187Z,95687.84
2023-05-19T06:49:08.943Z,95679.53
2023-05-19T06:51:35.789Z,95682.00
2023-05-19T06:54:02.960Z,95673.84
2023-05-19T06:56:29.995Z,95666.84
2023-05-19T06:58:56.889Z,95668.50
2023-05-19T07:01:23.883Z,95667.72
2023-05-19T07:03:50.697Z,95671.78
2023-05-19T07:06:17.530Z,95671.53
2023-05-19T07:08:44.428Z,95668.75
2023-05-19T07:11:11.841Z,95666.56
2023-05-19T07:13:38.551Z,95672.59
2023-05-19T07:16:05.409Z,95677.16
2023-05-19T07:18:32.064Z,95678.59
2023-05-19T07:20:58.685Z,95690.63
2023-05-19T07:23:25.236Z,95680.88
2023-05-19T07:25:55.759Z,95678.47
2023-05-19T07:28:22.531Z,95683.31
2023-05-19T07:30:49.206Z,95680.25
2023-05-19T07:33:15.884Z,95679.66
2023-05-19T07:35:42.701Z,95672.63
2023-05-19T07:38:09.233Z,95676.19
2023-05-19T07:40:35.897Z,95666.06
2023-05-19T07:43:02.453Z,95668.22
2023-05-19T07:45:29.162Z,95664.19
2023-05-19T07:47:55.772Z,95657.25
2023-05-19T07:50:22.350Z,95662.75
2023-05-19T07:52:48.941Z,95664.59
2023-05-19T07:55:16.505Z,95667.06
2023-05-19T07:57:43.095Z,95658.06
2023-05-19T08:00:10.174Z,95646.88
2023-05-19T08:02:36.906Z,95648.94
2023-05-19T08:05:03.652Z,95655.66
2023-05-19T08:07:30.193Z,95653.63
2023-05-19T08:09:56.925Z,95658.72
2023-05-19T08:12:23.651Z,95652.75
2023-05-19T08:14:50.285Z,95649.41
2023-05-19T08:17:16.828Z,95651.94
2023-05-19T08:19:43.358Z,95657.66
2023-05-19T08:22:09.891Z,95660.09
2023-05-19T08:24:36.571Z,95656.25
2023-05-19T08:27:03.324Z,95653.38
2023-05-19T08:29:30.017Z,95649.53
2023-05-19T08:31:56.708Z,95655.44
2023-05-19T08:34:23.290Z,95643.81
2023-05-19T08:36:49.862Z,95636.00
2023-05-19T08:39:16.682Z,95641.72
2023-05-19T08:41:43.442Z,95640.09
2023-05-19T08:44:10.170Z,95639.31
2023-05-19T08:46:37.150Z,95641.56
2023-05-19T08:49:11.663Z,95640.72
2023-05-19T08:52:00.326Z,95638.31
2023-05-19T08:54:37.466Z,95632.53
2023-05-19T08:57:06.680Z,95632.56
2023-05-19T08:59:34.536Z,95637.22
2023-05-19T09:02:02.201Z,95637.97
2023-05-19T09:04:30.338Z,95634.94
2023-05-19T09:06:57.144Z,95636.34
2023-05-19T09:09:23.809Z,95626.66
2023-05-19T09:11:50.544Z,95627.34
2023-05-19T09:14:17.118Z,95619.34
2023-05-19T09:16:45.519Z,95619.94
2023-05-19T09:19:14.159Z,95615.66
2023-05-19T09:21:40.771Z,95611.72
2023-05-19T09:24:09.502Z,95606.41
2023-05-19T09:26:42.346Z,95604.22
2023-05-19T09:29:18.571Z,95605.63
2023-05-19T09:31:52.559Z,95601.50
2023-05-19T09:34:20.416Z,95596.19
2023-05-19T09:36:48.566Z,95602.72
2023-05-19T09:39:22.708Z,95598.63
2023-05-19T09:41:56.515Z,95596.19
2023-05-19T09:44:27.849Z,95607.22
2023-05-19T09:46:55.593Z,95600.25
2023-05-19T09:49:24.658Z,95602.84
2023-05-19T09:51:54.723Z,95602.91
2023-05-19T09:54:22.926Z,95596.59
2023-05-19T09:56:59.648Z,95601.94
2023-05-19T09:59:29.022Z,95594.56
2023-05-19T10:01:59.929Z,95585.59
2023-05-19T10:04:28.532Z,95590.00
2023-05-19T10:06:57.440Z,95585.28
2023-05-19T10:09:26.279Z,95589.84
2023-05-19T10:11:54.784Z,95591.94
2023-05-19T10:14:27.887Z,95591.88
2023-05-19T10:16:56.760Z,95584.84
2023-05-19T10:19:30.084Z,95576.97
2023-05-19T10:21:56.772Z,95581.16
2023-05-19T10:24:23.314Z,95578.72
2023-05-19T10:26:56.620Z,95578.97
2023-05-19T10:29:28.972Z,95578.31
2023-05-19T10:32:08.103Z,95595.84
2023-05-19T10:35:08.588Z,95594.47
2023-05-19T10:37:59.037Z,95587.44
2023-05-19T10:40:33.347Z,95578.94
2023-05-19T10:43:20.877Z,95575.66
2023-05-19T10:45:58.344Z,95582.09
2023-05-19T10:48:25.093Z,95576.63
2023-05-19T10:50:56.455Z,95580.53
2023-05-19T10:53:31.722Z,95577.06
2023-05-19T10:56:00.932Z,95568.09
2023-05-19T10:58:43.611Z,95565.88
2023-05-19T11:01:15.672Z,95562.06
2023-05-19T11:03:46.698Z,95569.31
2023-05-19T11:06:25.481Z,95568.41
2023-05-19T11:09:07.293Z,95565.56
2023-05-19T11:11:46.189Z,95562.59
2023-05-19T11:14:14.192Z,95570.84
2023-05-19T11:16:41.172Z,95568.25
2023-05-19T11:19:07.968Z,95565.91
2023-05-19T11:21:51.762Z,95570.50
2023-05-19T11:24:38.347Z,95558.53
2023-05-19T11:27:28.030Z,95558.47
2023-05-19T11:30:18.018Z,95553.06
2023-05-19T11:32:48.046Z,95562.53
2023-05-19T11:35:17.972Z,95557.53
2023-05-19T11:37:45.469Z,95555.97
2023-05-19T11:40:13.483Z,95548.34
2023-05-19T11:42:40.110Z,95545.72
2023-05-19T11:45:07.668Z,95550.31
2023-05-19T11:47:46.516Z,95540.66
2023-05-19T11:50:20.868Z,95542.63
2023-05-19T11:52:48.136Z,95540.56
2023-05-19T11:55:19.349Z,95545.41
2023-05-19T11:58:12.172Z,95533.91
2023-05-19T12:00:40.984Z,95532.00
2023-05-19T12:03:08.525Z,95536.78
2023-05-19T12:05:43.886Z,95537.31
2023-05-19T12:08:11.644Z,95531.59
2023-05-19T12:10:39.593Z,95524.97
2023-05-19T12:13:06.668Z,95518.25
2023-05-19T12:15:33.587Z,95519.84
2023-05-19T12:18:01.752Z,95523.88
2023-05-19T12:20:29.918Z,95528.78
2023-05-19T12:22:57.092Z,95525.19
2023-05-19T12:25:24.559Z,95521.34
2023-05-19T12:27:51.191Z,95522.25
2023-05-19T12:30:18.117Z,95532.06
2023-05-19T12:32:46.295Z,95523.78
2023-05-19T12:35:12.865Z,95528.44
2023-05-19T12:37:41.927Z,95524.69
2023-05-19T12:40:09.673Z,95525.34
2023-05-19T12:42:36.266Z,95520.88
2023-05-19T12:45:04.317Z,95519.22
2023-05-19T12:47:35.841Z,95512.97
2023-05-19T12:50:04.144Z,95526.88
2023-05-19T12:52:33.522Z,95523.75
2023-05-19T12:55:05.726Z,95519.38
2023-05-19T12:57:36.598Z,95512.25
2023-05-19T13:00:07.573Z,95518.31
2023-05-19T13:02:35.936Z,95509.66
2023-05-19T13:05:03.251Z,95514.25
2023-05-19T13:07:29.933Z,95515.09
2023-05-19T13:09:56.500Z,95517.84
2023-05-19T13:12:23.118Z,95513.88
2023-05-19T13:14:49.709Z,95514.25
2023-05-19T13:17:16.256Z,95509.84
2023-05-19T13:19:42.976Z,95504.84
2023-05-19T13:22:09.515Z,95503.41
2023-05-19T13:24:36.070Z,95493.56
2023-05-19T13:27:02.646Z,95492.78
2023-05-19T13:29:29.325Z,95513.50
2023-05-19T13:31:55.873Z,95506.59
2023-05-19T13:34:22.421Z,95505.19
2023-05-19T13:36:49.065Z,95503.53
2023-05-19T13:39:15.670Z,95528.88
2023-05-19T13:41:42.171Z,95518.03
2023-05-19T13:44:08.807Z,95518.69
2023-05-19T13:46:44.747Z,95507.56
2023-05-19T13:49:12.515Z,95509.47
2023-05-19T13:51:42.367Z,95509.84
2023-05-19T13:54:08.866Z,95510.28
2023-05-19T13:56:35.885Z,95508.22
2023-05-19T13:59:02.783Z,95504.56
2023-05-19T14:01:29.707Z,95507.22
2023-05-19T14:03:56.459Z,95506.75
2023-05-19T14:06:23.109Z,95491.56
2023-05-19T14:08:49.648Z,95512.41
2023-05-19T14:11:20.284Z,95507.47
2023-05-19T14:13:52.352Z,95501.88
2023-05-19T14:16:19.497Z,95502.25
2023-05-19T14:18:46.234Z,95506.09
2023-05-19T14:21:12.908Z,95512.22
2023-05-19T14:23:39.530Z,95504.59
2023-05-19T14:26:06.349Z,95503.31
2023-05-19T14:28:32.916Z,95520.09
2023-05-19T14:30:59.525Z,95498.41
2023-05-19T14:33:26.050Z,95522.19
2023-05-19T14:35:53.019Z,95517.97
2023-05-19T14:38:19.537Z,95507.13
2023-05-19T14:40:46.198Z,95500.72
2023-05-19T14:43:12.706Z,95513.44
2023-05-19T14:45:39.426Z,95495.63
2023-05-19T14:48:06.020Z,95494.66
2023-05-19T14:50:32.943Z,95503.81
2023-05-19T14:52:59.616Z,95490.47
2023-05-19T14:55:26.178Z,95495.44
2023-05-19T14:57:52.730Z,95487.28
2023-05-19T15:00:19.495Z,95493.19
2023-05-19T15:02:46.274Z,95480.44
2023-05-19T15:05:12.837Z,95490.25
2023-05-19T15:07:39.522Z,95502.09
2023-05-19T15:10:07.590Z,95507.47
2023-05-19T15:12:34.568Z,95496.13
2023-05-19T15:15:01.144Z,95502.78
2023-05-19T15:17:27.930Z,95496.72
2023-05-19T15:19:54.627Z,95491.34
2023-05-19T15:22:21.284Z,95496.88
2023-05-19T15:24:48.044Z,95503.59
2023-05-19T15:27:14.617Z,95485.16
2023-05-19T15:29:41.279Z,95488.63
2023-05-19T15:32:10.281Z,95493.75
2023-05-19T15:34:36.828Z,95493.78
2023-05-19T15:37:03.634Z,95488.59
2023-05-19T15:39:30.689Z,95482.56
2023-05-19T15:41:57.298Z,95485.44
2023-05-19T15:44:23.852Z,95484.59
2023-05-19T15:46:50.517Z,95495.00
2023-05-19T15:49:17.201Z,95491.72
2023-05-19T15:51:44.492Z,95491.25
2023-05-19T15:54:11.265Z,95494.16
2023-05-19T15:56:37.837Z,95503.22
2023-05-19T15:59:04.332Z,95492.72
2023-05-19T16:01:30.977Z,95499.91
2023-05-19T16:03:57.679Z,95489.13
2023-05-19T16:06:24.267Z,95484.47
2023-05-19T16:08:50.796Z,95487.66
2023-05-19T16:11:17.411Z,95478.53
2023-05-19T16:13:43.948Z,95482.41
2023-05-19T16:16:10.522Z,95479.66
2023-05-19T16:18:37.153Z,95474.06
2023-05-19T16:21:03.782Z,95485.09
2023-05-19T16:23:31.457Z,95477.88
2023-05-19T16:25:58.063Z,95475.81
2023-05-19T16:28:25.124Z,95472.63
2023-05-19T16:30:51.874Z,95463.72
2023-05-19T16:33:19.075Z,95468.06
2023-05-19T16:35:45.636Z,95462.84
2023-05-19T16:38:12.238Z,95466.13
2023-05-19T16:40:41.127Z,95467.25
2023-05-19T16:43:07.665Z,95460.44
2023-05-19T16:45:36.271Z,95478.66
2023-05-19T16:48:02.949Z,95464.66
2023-05-19T16:50:29.762Z,95471.66
2023-05-19T16:52:56.371Z,95465.31
2023-05-19T16:55:22.894Z,95467.56
2023-05-19T16:57:49.491Z,95470.47
2023-05-19T17:00:16.180Z,95457.00
2023-05-19T17:02:42.946Z,95464.63
2023-05-19T17:05:09.639Z,95465.44
2023-05-19T17:07:36.274Z,95467.28
2023-05-19T17:10:02.910Z,95464.19
2023-05-19T17:12:29.471Z,95474.19
2023-05-19T17:14:56.025Z,95464.75
2023-05-19T17:17:22.724Z,95477.34
2023-05-19T17:19:49.367Z,95464.03
2023-05-19T17:22:15.914Z,95474.06
2023-05-19T17:24:42.449Z,95472.00
2023-05-19T17:27:08.992Z,95483.97
2023-05-19T17:29:36.933Z,95478.75
2023-05-19T17:32:03.780Z,95477.31
2023-05-19T17:34:30.330Z,95481.13
2023-05-19T17:36:56.833Z,95468.94
2023-05-19T17:39:23.423Z,95464.84
2023-05-19T17:41:49.966Z,95471.78
2023-05-19T17:44:16.521Z,95463.19
2023-05-19T17:46:43.058Z,95468.72
2023-05-19T17:49:09.673Z,95461.97
2023-05-19T17:51:36.669Z,95469.53
2023-05-19T17:54:03.463Z,95459.50
2023-05-19T17:56:33.715Z,95456.28
2023-05-19T17:59:00.497Z,95461.38
2023-05-19T18:01:27.282Z,95461.19
2023-05-19T18:03:54.181Z,95468.50
2023-05-19T18:06:21.085Z,95475.06
2023-05-19T18:08:47.845Z,95470.19
2023-05-19T18:11:14.545Z,95468.53
2023-05-19T18:13:41.568Z,95478.13
2023-05-19T18:16:08.931Z,95476.28
2023-05-19T18:18:35.534Z,95469.94
2023-05-19T18:21:02.071Z,95479.56
2023-05-19T18:23:28.606Z,95471.00
2023-05-19T18:25:55.137Z,95469.34
2023-05-19T18:28:22.872Z,95476.91
2023-05-19T18:31:04.392Z,95472.00
2023-05-19T18:33:31.406Z,95471.00
2023-05-19T18:35:59.269Z,95467.72
2023-05-19T18:38:26.123Z,95480.03
2023-05-19T18:40:52.991Z,95466.69
2023-05-19T18:43:19.625Z,95465.06
2023-05-19T18:45:49.164Z,95464.31
2023-05-19T18:48:15.893Z,95469.84
2023-05-19T18:50:42.605Z,95471.19
2023-05-19T18:53:09.225Z,95473.13
2023-05-19T18:55:38.280Z,95476.78
2023-05-19T18:58:05.077Z,95478.88
2023-05-19T19:00:31.811Z,95468.53
2023-05-19T19:03:01.330Z,95467.69
2023-05-19T19:05:28.821Z,95469.03
2023-05-19T19:07:55.308Z,95473.00
2023-05-19T19:10:21.903Z,95468.16
2023-05-19T19:12:48.439Z,95464.13
2023-05-19T19:15:14.997Z,95465.31
2023-05-19T19:17:41.572Z,95468.59
2023-05-19T19:20:08.903Z,95469.03
2023-05-19T19:22:35.683Z,95479.16
2023-05-19T19:25:02.201Z,95474.53
2023-05-19T19:27:28.736Z,95476.91
2023-05-19T19:29:55.277Z,95489.28
2023-05-19T19:32:21.847Z,95482.75
2023-05-19T19:34:48.418Z,95482.22
2023-05-19T19:37:14.960Z,95489.56
2023-05-19T19:39:41.503Z,95487.31
2023-05-19T19:42:08.068Z,95480.56
2023-05-19T19:44:34.713Z,95481.81
2023-05-19T19:47:01.332Z,95486.50
2023-05-19T19:49:27.906Z,95484.06
2023-05-19T19:51:55.566Z,95484.44
2023-05-19T19:54:22.134Z,95486.09
2023-05-19T19:56:48.677Z,95479.56
2023-05-19T19:59:15.169Z,95475.50
2023-05-19T20:01:41.694Z,95471.78
2023-05-19T20:04:08.430Z,95477.53
2023-05-19T20:06:35.201Z,95481.59
2023-05-19T20:09:01.767Z,95481.13
2023-05-19T20:11:28.382Z,95467.03
2023-05-19T20:13:54.939Z,95476.22
2023-05-19T20:16:21.668Z,95471.50
2023-05-19T20:18:48.326Z,95482.25
2023-05-19T20:21:15.021Z,95485.94
2023-05-19T20:23:41.677Z,95474.97
2023-05-19T20:26:11.863Z,95477.47
2023-05-19T20:28:39.467Z,95479.56
2023-05-19T20:31:06.073Z,95476.28
2023-05-19T20:33:32.754Z,95476.69
2023-05-19T20:35:59.296Z,95476.22
2023-05-19T20:38:26.150Z,95481.59
2023-05-19T20:40:54.123Z,95479.16
2023-05-19T20:43:20.691Z,95479.97
2023-05-19T20:45:47.314Z,95476.28
2023-05-19T20:48:13.887Z,95478.75
2023-05-19T20:50:40.475Z,95478.59
2023-05-19T20:53:07.079Z,95475.84
2023-05-19T20:55:33.790Z,95482.34
2023-05-19T20:58:00.552Z,95479.09
2023-05-19T21:00:28.816Z,95474.16
2023-05-19T21:02:57.056Z,95474.38
2023-05-19T21:05:23.837Z,95487.19
2023-05-19T21:07:50.391Z,95473.69
2023-05-19T21:10:17.220Z,95476.50
2023-05-19T21:12:43.827Z,95475.88
2023-05-19T21:15:10.892Z,95472.97
2023-05-19T21:17:37.570Z,95478.97
2023-05-19T21:20:04.621Z,95479.16
2023-05-19T21:22:31.835Z,95464.06
2023-05-19T21:24:58.444Z,95468.84
2023-05-19T21:27:25.137Z,95475.63
2023-05-19T21:29:55.253Z,95469.94
2023-05-19T21:32:22.236Z,95462.22
2023-05-19T21:34:48.899Z,95466.66
2023-05-19T21:37:15.472Z,95460.84
2023-05-19T21:39:41.995Z,95465.41
2023-05-19T21:42:08.529Z,95456.84
2023-05-19T21:44:35.061Z,95465.50
2023-05-19T21:47:01.609Z,95463.59
2023-05-19T21:49:28.153Z,95462.66
2023-05-19T21:51:54.703Z,95458.34
2023-05-19T21:54:21.307Z,95449.59
2023-05-19T21:56:47.792Z,95456.94
2023-05-19T21:59:14.377Z,95460.25
2023-05-19T22:01:40.991Z,95454.94
2023-05-19T22:04:07.768Z,95455.22
2023-05-19T22:06:34.542Z,95446.59
2023-05-19T22:09:01.089Z,95453.78
2023-05-19T22:11:27.810Z,95445.94
2023-05-19T22:13:54.380Z,95451.81
2023-05-19T22:16:20.986Z,95450.91
2023-05-19T22:18:47.537Z,95448.09
2023-05-19T22:21:14.105Z,95449.25
2023-05-19T22:23:40.641Z,95445.31
2023-05-19T22:26:07.190Z,95447.69
2023-05-19T22:28:33.753Z,95450.00
2023-05-19T22:31:00.281Z,95454.59
2023-05-19T22:33:26.857Z,95454.47
2023-05-19T22:35:53.696Z,95444.28
2023-05-19T22:38:20.208Z,95452.59
2023-05-19T22:40:46.845Z,95445.75
2023-05-19T22:43:13.384Z,95445.38
2023-05-19T22:45:39.984Z,95450.38
2023-05-19T22:48:06.680Z,95447.47
2023-05-19T22:50:33.428Z,95445.97
2023-05-19T22:52:59.940Z,95450.13
2023-05-19T22:55:26.499Z,95441.69
2023-05-19T22:57:53.066Z,95442.34
2023-05-19T23:00:19.833Z,95448.16
2023-05-19T23:02:46.917Z,95449.00
2023-05-19T23:05:13.501Z,95438.31
2023-05-19T23:07:40.021Z,95438.53
2023-05-19T23:10:06.859Z,95437.94
2023-05-19T23:12:33.385Z,95435.41
2023-05-19T23:14:59.894Z,95433.09
2023-05-19T23:17:26.483Z,95441.34
2023-05-19T23:19:53.100Z,95430.84
2023-05-19T23:22:19.642Z,95443.50
2023-05-19T23:24:46.324Z,95437.78
2023-05-19T23:27:12.905Z,95442.03
2023-05-19T23:29:39.432Z,95429.66
2023-05-19T23:32:06.175Z,95433.78
2023-05-19T23:34:32.741Z,95435.03
2023-05-19T23:36:59.265Z,95442.59
2023-05-19T23:39:25.852Z,95429.50
2023-05-19T23:41:52.365Z,95429.13
2023-05-19T23:44:18.906Z,95429.09
2023-05-19T23:46:45.414Z,95435.81
2023-05-19T23:49:11.935Z,95430.53
2023-05-19T23:51:38.468Z,95419.09
2023-05-19T23:54:05.071Z,95436.28
2023-05-19T23:56:31.624Z,95437.56
2023-05-19T23:58:58.181Z,95429.50
